TimeEST,TemperatureF,Dew PointF,Humidity,Sea Level PressureIn,VisibilityMPH,Wind Direction,Wind SpeedMPH,Gust SpeedMPH,PrecipitationIn,Events,Conditions,WindDirDegrees,DateUTC
12:53 AM,48.0,46.9,96,29.99,3.0,SE,6.9,-,0.04,Rain,Rain,140,2013-01-11 05:53:00
1:00 AM,48.2,46.4,93,29.97,4.0,SE,8.1,-,0.01,Rain,Light Rain,130,2013-01-11 06:00:00
1:53 AM,51.1,48.9,92,29.92,4.0,SE,11.5,-,0.15,Rain,Rain,130,2013-01-11 06:53:00
2:19 AM,51.8,50.0,94,29.90,2.0,SE,12.7,-,0.09,Rain,Rain,130,2013-01-11 07:19:00
2:53 AM,53.1,51.1,93,29.89,3.0,SE,15.0,21.9,0.19,Rain,Light Rain,140,2013-01-11 07:53:00
3:02 AM,53.6,51.8,94,29.88,4.0,SE,13.8,23.0,0.01,Rain,Light Rain,140,2013-01-11 08:02:00
3:17 AM,53.6,51.8,94,29.88,9.0,SE,13.8,-,0.01,,Overcast,140,2013-01-11 08:17:00
3:37 AM,53.6,51.8,94,29.87,9.0,SSE,15.0,-,0.01,Rain,Light Rain,160,2013-01-11 08:37:00
3:53 AM,53.1,52.0,96,29.90,5.0,South,10.4,-,0.07,Rain,Rain,190,2013-01-11 08:53:00
4:08 AM,53.6,51.8,94,29.91,2.0,SW,9.2,18.4,0.12,Rain,Heavy Rain,220,2013-01-11 09:08:00
4:11 AM,53.6,51.8,94,29.91,1.8,SSW,6.9,-,0.14,Rain,Heavy Rain,200,2013-01-11 09:11:00
4:16 AM,53.6,53.6,100,29.91,2.0,South,9.2,-,0.18,Rain,Heavy Rain,180,2013-01-11 09:16:00
4:24 AM,53.6,53.6,100,29.91,2.0,South,9.2,-,0.24,Rain,Heavy Rain,190,2013-01-11 09:24:00
4:43 AM,53.6,51.8,94,29.87,4.0,Calm,Calm,-,0.31,Rain,Light Rain,0,2013-01-11 09:43:00
4:53 AM,52.0,51.1,97,29.86,2.0,SE,4.6,-,0.31,Rain,Light Rain,130,2013-01-11 09:53:00
5:07 AM,53.6,51.8,94,29.84,7.0,ESE,8.1,-,0.00,Rain,Light Rain,120,2013-01-11 10:07:00
5:30 AM,53.6,51.8,94,29.86,2.5,SSE,8.1,-,0.05,Rain,Light Rain,160,2013-01-11 10:30:00
5:36 AM,53.6,53.6,100,29.86,4.0,SSE,6.9,-,0.06,Rain,Rain,160,2013-01-11 10:36:00
5:53 AM,53.1,53.1,100,29.85,4.0,SSE,9.2,-,0.06,Rain,Light Rain,150,2013-01-11 10:53:00
6:09 AM,53.6,53.6,100,29.84,1.8,SSE,8.1,-,0.00,,Overcast,150,2013-01-11 11:09:00
6:21 AM,53.6,53.6,100,29.84,0.5,SSE,8.1,-,0.00,Fog-Rain,Light Rain,160,2013-01-11 11:21:00
6:38 AM,53.6,53.6,100,29.84,0.2,SSE,9.2,-,0.00,Fog,Fog,160,2013-01-11 11:38:00
6:53 AM,53.1,53.1,100,29.85,0.2,SSE,5.8,-,0.00,Fog,Fog,160,2013-01-11 11:53:00
7:04 AM,53.6,53.6,100,29.85,0.5,South,4.6,-,N/A,Fog,Fog,170,2013-01-11 12:04:00
7:11 AM,53.6,53.6,100,29.86,2.0,South,6.9,-,N/A,,Overcast,180,2013-01-11 12:11:00
7:19 AM,53.6,53.6,100,29.86,10.0,South,9.2,-,N/A,,Overcast,190,2013-01-11 12:19:00
7:43 AM,53.6,53.6,100,29.86,10.0,SSW,11.5,-,N/A,,Overcast,200,2013-01-11 12:43:00
7:53 AM,54.0,53.1,97,29.87,10.0,SSW,11.5,-,N/A,,Overcast,200,2013-01-11 12:53:00
8:53 AM,55.9,52.0,87,29.90,10.0,SW,12.7,18.4,N/A,,Overcast,230,2013-01-11 13:53:00
9:53 AM,55.9,52.0,87,29.91,10.0,SW,13.8,25.3,N/A,,Overcast,230,2013-01-11 14:53:00
10:50 AM,55.4,51.8,88,29.91,10.0,SW,18.4,25.3,N/A,,Overcast,230,2013-01-11 15:50:00
10:53 AM,55.9,51.1,84,29.91,10.0,WSW,17.3,27.6,N/A,,Overcast,240,2013-01-11 15:53:00
11:53 AM,52.0,48.0,86,29.92,10.0,WSW,17.3,26.5,N/A,,Overcast,250,2013-01-11 16:53:00
12:45 PM,57.2,48.2,72,29.90,10.0,WSW,17.3,24.2,N/A,,Mostly Cloudy,240,2013-01-11 17:45:00
12:53 PM,57.9,48.0,70,29.90,10.0,SW,18.4,26.5,N/A,,Mostly Cloudy,230,2013-01-11 17:53:00
1:53 PM,55.9,48.0,75,29.89,10.0,SW,12.7,23.0,N/A,,Overcast,230,2013-01-11 18:53:00
2:15 PM,55.4,48.2,77,29.89,10.0,SSW,11.5,-,N/A,,Scattered Clouds,210,2013-01-11 19:15:00
3:53 PM,57.9,48.0,70,29.89,10.0,SSW,9.2,-,N/A,,Scattered Clouds,210,2013-01-11 20:53:00
4:53 PM,57.9,48.0,70,29.89,10.0,SSW,9.2,-,N/A,,Clear,200,2013-01-11 21:53:00
5:53 PM,55.9,48.0,75,29.90,10.0,South,9.2,-,N/A,,Clear,190,2013-01-11 22:53:00
6:53 PM,55.0,48.0,77,29.91,10.0,SSW,6.9,-,N/A,,Clear,200,2013-01-11 23:53:00
7:53 PM,55.0,48.0,77,29.90,10.0,SSW,8.1,-,N/A,,Clear,200,2013-01-12 00:53:00
8:53 PM,55.0,48.0,77,29.89,10.0,SSW,9.2,-,N/A,,Clear,200,2013-01-12 01:53:00
9:53 PM,55.0,46.0,72,29.90,10.0,SSW,10.4,-,N/A,,Clear,210,2013-01-12 02:53:00
10:53 PM,55.9,46.0,69,29.91,10.0,SSW,11.5,-,N/A,,Clear,200,2013-01-12 03:53:00